createdAt,value
2022-09-21T00:02:02.507Z,99675.90
2022-09-21T00:05:08.155Z,99679.46
2022-09-21T00:08:16.153Z,99677.12
2022-09-21T00:11:22.077Z,99668.54
2022-09-21T00:14:27.868Z,99672.13
2022-09-21T00:17:34.215Z,99675.19
2022-09-21T00:20:40.731Z,99673.66
2022-09-21T00:23:46.181Z,99672.06
2022-09-21T00:26:52.696Z,99677.53
2022-09-21T00:29:58.499Z,99676.13
2022-09-21T00:33:04.170Z,99680.24
2022-09-21T00:36:09.671Z,99671.13
2022-09-21T00:39:17.218Z,99669.03
2022-09-21T00:42:27.216Z,99671.73
2022-09-21T00:45:34.061Z,99673.45
2022-09-21T00:48:40.771Z,99671.00
2022-09-21T00:51:46.035Z,99667.89
2022-09-21T00:55:07.524Z,99666.16
2022-09-21T00:58:19.576Z,99666.52
2022-09-21T01:01:26.288Z,99670.09
2022-09-21T01:04:33.721Z,99677.03
2022-09-21T01:07:42.144Z,99672.94
2022-09-21T01:11:21.540Z,99673.61
2022-09-21T01:14:53.894Z,99672.48
2022-09-21T01:18:37.431Z,99673.55
2022-09-21T01:21:48.927Z,99673.31
2022-09-21T01:25:32.322Z,99670.17
2022-09-21T01:29:04.815Z,99662.34
2022-09-21T01:32:22.776Z,99667.67
2022-09-21T01:35:40.385Z,99669.14
2022-09-21T01:38:56.799Z,99668.48
2022-09-21T01:42:04.634Z,99669.89
2022-09-21T01:45:13.365Z,99670.49
2022-09-21T01:48:19.802Z,99673.90
2022-09-21T01:51:26.472Z,99677.83
2022-09-21T01:54:40.899Z,99681.02
2022-09-21T01:58:01.266Z,99680.45
2022-09-21T02:01:09.977Z,99678.80
2022-09-21T02:04:20.179Z,99686.59
2022-09-21T02:07:26.070Z,99684.16
2022-09-21T02:10:49.363Z,99681.83
2022-09-21T02:13:59.554Z,99676.86
2022-09-21T02:17:34.775Z,99681.06
2022-09-21T02:20:48.015Z,99679.16
2022-09-21T02:23:55.922Z,99674.19
2022-09-21T02:27:03.167Z,99671.92
2022-09-21T02:30:11.713Z,99677.19
2022-09-21T02:33:26.023Z,99689.39
2022-09-21T02:36:42.547Z,99685.25
2022-09-21T02:40:04.184Z,99688.30
2022-09-21T02:43:19.294Z,99684.81
2022-09-21T02:46:44.078Z,99692.18
2022-09-21T02:49:58.499Z,99692.45
2022-09-21T02:53:04.108Z,99699.75
2022-09-21T02:56:14.056Z,99696.13
2022-09-21T02:59:20.845Z,99697.44
2022-09-21T03:02:26.763Z,99695.23
2022-09-21T03:05:33.195Z,99713.48
2022-09-21T03:08:39.498Z,99713.47
2022-09-21T03:11:47.938Z,99724.70
2022-09-21T03:14:54.721Z,99719.09
2022-09-21T03:18:00.585Z,99723.58
2022-09-21T03:21:00.595Z,99718.06
2022-09-21T03:24:05.590Z,99725.63
2022-09-21T03:27:10.677Z,99727.70
2022-09-21T03:30:17.083Z,99715.55
2022-09-21T03:33:23.766Z,99717.13
2022-09-21T03:36:29.855Z,99708.92
2022-09-21T03:39:35.842Z,99717.03
2022-09-21T03:42:42.250Z,99721.55
2022-09-21T03:45:51.461Z,99728.60
2022-09-21T03:48:56.717Z,99732.86
2022-09-21T03:51:56.324Z,99734.22
2022-09-21T03:55:03.074Z,99735.72
2022-09-21T03:58:08.903Z,99732.45
2022-09-21T04:01:18.685Z,99730.77
2022-09-21T04:04:24.396Z,99721.36
2022-09-21T04:07:30.673Z,99726.56
2022-09-21T04:10:38.428Z,99723.53
2022-09-21T04:13:44.161Z,99718.05
2022-09-21T04:16:50.377Z,99722.27
2022-09-21T04:19:56.691Z,99736.06
2022-09-21T04:23:02.486Z,99736.52
2022-09-21T04:26:09.537Z,99735.48
2022-09-21T04:29:15.401Z,99738.91
2022-09-21T04:32:21.265Z,99745.01
2022-09-21T04:35:20.468Z,99732.11
2022-09-21T04:38:25.606Z,99737.33
2022-09-21T04:41:31.060Z,99745.14
2022-09-21T04:44:37.516Z,99750.13
2022-09-21T04:47:46.076Z,99742.02
2022-09-21T04:50:53.874Z,99738.02
2022-09-21T04:53:59.209Z,99735.39
2022-09-21T04:57:04.975Z,99736.47
2022-09-21T05:00:11.761Z,99733.30
2022-09-21T05:03:17.461Z,99730.53
2022-09-21T05:06:22.832Z,99734.46
2022-09-21T05:09:45.669Z,99736.14
2022-09-21T05:12:50.768Z,99738.16
2022-09-21T05:15:56.501Z,99738.15
2022-09-21T05:19:05.805Z,99742.91
2022-09-21T05:22:11.412Z,99741.92
2022-09-21T05:25:18.169Z,99740.75
2022-09-21T05:28:24.641Z,99739.42
2022-09-21T05:31:38.209Z,99744.36
2022-09-21T05:34:54.284Z,99739.88
2022-09-21T05:38:08.474Z,99742.81
2022-09-21T05:41:14.244Z,99736.72
2022-09-21T05:44:19.519Z,99737.43
2022-09-21T05:47:56.611Z,99736.59
2022-09-21T05:51:18.652Z,99727.84
2022-09-21T05:54:49.624Z,99733.87
2022-09-21T05:58:16.124Z,99731.83
2022-09-21T06:01:35.407Z,99730.69
2022-09-21T06:04:40.261Z,99736.34
2022-09-21T06:07:46.286Z,99738.12
2022-09-21T06:10:59.865Z,99741.81
2022-09-21T06:14:07.537Z,99742.89
2022-09-21T06:17:18.041Z,99739.55
2022-09-21T06:20:26.585Z,99745.00
2022-09-21T06:23:36.940Z,99751.55
2022-09-21T06:26:44.422Z,99749.87
2022-09-21T06:29:50.947Z,99746.79
2022-09-21T06:32:56.902Z,99755.67
2022-09-21T06:36:11.088Z,99751.98
2022-09-21T06:39:19.769Z,99753.00
2022-09-21T06:42:25.732Z,99753.45
2022-09-21T06:45:32.067Z,99750.23
2022-09-21T06:48:37.879Z,99746.47
2022-09-21T06:51:43.919Z,99754.67
2022-09-21T06:54:51.957Z,99764.90
2022-09-21T06:57:58.357Z,99769.05
2022-09-21T07:01:04.373Z,99769.27
2022-09-21T07:04:16.073Z,99769.66
2022-09-21T07:07:21.359Z,99759.34
2022-09-21T07:10:30.051Z,99762.58
2022-09-21T07:13:37.534Z,99759.55
2022-09-21T07:16:44.648Z,99766.08
2022-09-21T07:19:49.969Z,99751.92
2022-09-21T07:22:55.900Z,99756.31
2022-09-21T07:26:03.062Z,99750.48
2022-09-21T07:29:10.981Z,99760.06
2022-09-21T07:32:16.847Z,99749.02
2022-09-21T07:35:21.685Z,99758.77
2022-09-21T07:38:28.199Z,99753.27
2022-09-21T07:41:38.875Z,99752.33
2022-09-21T07:44:46.841Z,99754.12
2022-09-21T07:47:52.808Z,99755.97
2022-09-21T07:50:59.149Z,99759.88
2022-09-21T07:54:10.299Z,99758.19
2022-09-21T07:57:33.677Z,99762.48
2022-09-21T08:00:41.335Z,99758.94
2022-09-21T08:03:43.053Z,99753.42
2022-09-21T08:06:35.359Z,99756.34
2022-09-21T08:09:39.965Z,99751.95
2022-09-21T08:12:46.152Z,99767.52
2022-09-21T08:15:51.581Z,99763.98
2022-09-21T08:18:57.505Z,99760.91
2022-09-21T08:22:06.223Z,99767.27
2022-09-21T08:25:11.694Z,99764.50
2022-09-21T08:28:16.326Z,99773.39
2022-09-21T08:31:25.302Z,99772.74
2022-09-21T08:34:31.396Z,99777.83
2022-09-21T08:37:38.924Z,99768.27
2022-09-21T08:40:45.687Z,99761.04
2022-09-21T08:44:09.071Z,99753.61
2022-09-21T08:47:28.071Z,99753.88
2022-09-21T08:50:46.944Z,99740.66
2022-09-21T08:53:59.792Z,99743.97
2022-09-21T08:57:06.502Z,99742.75
2022-09-21T09:00:12.431Z,99744.94
2022-09-21T09:03:41.833Z,99737.81
2022-09-21T09:07:23.685Z,99737.72
2022-09-21T09:11:02.154Z,99740.37
2022-09-21T09:14:30.722Z,99744.06
2022-09-21T09:18:01.222Z,99731.02
2022-09-21T09:21:07.887Z,99740.20
2022-09-21T09:24:22.283Z,99742.50
2022-09-21T09:27:53.227Z,99738.33
2022-09-21T09:30:59.241Z,99739.81
2022-09-21T09:34:38.975Z,99744.45
2022-09-21T09:37:48.106Z,99743.94
2022-09-21T09:41:09.524Z,99741.95
2022-09-21T09:44:28.027Z,99738.12
2022-09-21T09:48:13.207Z,99733.14
2022-09-21T09:51:18.141Z,99742.17
2022-09-21T09:54:30.345Z,99746.34
2022-09-21T09:57:42.980Z,99742.95
2022-09-21T10:00:47.706Z,99747.37
2022-09-21T10:03:55.169Z,99748.33
2022-09-21T10:07:00.909Z,99752.70
2022-09-21T10:10:07.743Z,99753.55
2022-09-21T10:13:27.393Z,99751.66
2022-09-21T10:16:38.911Z,99753.52
2022-09-21T10:19:45.025Z,99754.57
2022-09-21T10:22:51.639Z,99756.11
2022-09-21T10:25:57.130Z,99753.77
2022-09-21T10:29:15.868Z,99756.61
2022-09-21T10:32:32.793Z,99760.52
2022-09-21T10:35:39.938Z,99765.22
2022-09-21T10:38:46.388Z,99749.25
2022-09-21T10:41:52.381Z,99762.27
2022-09-21T10:45:10.130Z,99770.72
2022-09-21T10:48:24.472Z,99770.19
2022-09-21T10:51:46.004Z,99769.08
2022-09-21T10:54:51.857Z,99772.13
2022-09-21T10:57:57.406Z,99772.11
2022-09-21T11:01:04.300Z,99777.63
2022-09-21T11:04:19.524Z,99779.23
2022-09-21T11:07:32.385Z,99775.55
2022-09-21T11:10:48.826Z,99778.83
2022-09-21T11:14:08.633Z,99780.89
2022-09-21T11:17:20.895Z,99776.86
2022-09-21T11:20:52.623Z,99782.45
2022-09-21T11:24:39.876Z,99781.69
2022-09-21T11:27:56.006Z,99776.06
2022-09-21T11:31:16.024Z,99772.30
2022-09-21T11:35:09.460Z,99775.28
2022-09-21T11:38:50.158Z,99770.31
2022-09-21T11:42:38.106Z,99773.02
2022-09-21T11:46:06.778Z,99764.84
2022-09-21T11:49:41.603Z,99765.02
2022-09-21T11:53:04.171Z,99765.06
2022-09-21T11:56:40.476Z,99767.99
2022-09-21T12:00:01.302Z,99767.11
2022-09-21T12:03:34.157Z,99765.55
2022-09-21T12:07:02.505Z,99766.97
2022-09-21T12:10:48.439Z,99764.58
2022-09-21T12:14:22.239Z,99755.47
2022-09-21T12:18:03.767Z,99770.77
2022-09-21T12:21:43.561Z,99770.96
2022-09-21T12:24:57.318Z,99768.85
2022-09-21T12:28:18.464Z,99775.44
2022-09-21T12:31:55.808Z,99769.45
2022-09-21T12:35:08.558Z,99777.80
2022-09-21T12:38:39.763Z,99774.66
2022-09-21T12:42:00.452Z,99776.56
2022-09-21T12:45:12.991Z,99776.81
2022-09-21T12:48:34.899Z,99771.33
2022-09-21T12:51:52.199Z,99784.83
2022-09-21T12:55:35.240Z,99780.22
2022-09-21T12:59:01.658Z,99775.70
2022-09-21T13:02:47.318Z,99777.09
2022-09-21T13:06:01.103Z,99778.91
2022-09-21T13:09:03.348Z,99783.37
2022-09-21T13:12:15.287Z,99780.50
2022-09-21T13:15:29.392Z,99772.57
2022-09-21T13:18:53.423Z,99792.16
2022-09-21T13:21:59.969Z,99791.02
2022-09-21T13:25:19.745Z,99787.06
2022-09-21T13:28:30.048Z,99787.54
2022-09-21T13:31:40.908Z,99776.88
2022-09-21T13:34:49.870Z,99778.00
2022-09-21T13:37:55.378Z,99775.15
2022-09-21T13:41:14.165Z,99780.98
2022-09-21T13:44:23.461Z,99785.63
2022-09-21T13:47:28.856Z,99781.98
2022-09-21T13:50:56.214Z,99789.71
2022-09-21T13:54:01.552Z,99796.23
2022-09-21T13:57:36.682Z,99787.03
2022-09-21T14:01:09.936Z,99786.98
2022-09-21T14:04:18.646Z,99784.81
2022-09-21T14:07:23.313Z,99787.81
2022-09-21T14:10:36.033Z,99796.62
2022-09-21T14:13:51.219Z,99786.36
2022-09-21T14:17:05.345Z,99788.64
2022-09-21T14:20:14.712Z,99785.17
2022-09-21T14:23:37.873Z,99791.12
2022-09-21T14:27:02.201Z,99793.88
2022-09-21T14:30:20.214Z,99800.06
2022-09-21T14:33:46.226Z,99798.06
2022-09-21T14:36:58.036Z,99799.56
2022-09-21T14:40:03.846Z,99802.25
2022-09-21T14:43:10.879Z,99798.45
2022-09-21T14:46:47.671Z,99801.42
2022-09-21T14:50:19.221Z,99801.73
2022-09-21T14:53:34.772Z,99795.93
2022-09-21T14:57:15.347Z,99803.98
2022-09-21T15:00:38.786Z,99798.30
2022-09-21T15:04:06.393Z,99800.60
2022-09-21T15:07:56.510Z,99797.84
2022-09-21T15:11:43.456Z,99798.93
2022-09-21T15:14:49.852Z,99805.02
2022-09-21T15:18:11.305Z,99808.05
2022-09-21T15:21:17.699Z,99807.89
2022-09-21T15:24:46.670Z,99802.66
2022-09-21T15:27:53.383Z,99809.72
2022-09-21T15:31:00.577Z,99811.21
2022-09-21T15:34:06.670Z,99817.54
2022-09-21T15:37:25.541Z,99819.73
2022-09-21T15:44:03.995Z,99817.50
2022-09-21T15:47:11.303Z,99833.92
2022-09-21T15:50:17.224Z,99828.41
2022-09-21T15:53:35.856Z,99831.89
2022-09-21T15:56:47.484Z,99829.56
2022-09-21T15:59:54.743Z,99824.67
2022-09-21T16:03:12.374Z,99828.13
2022-09-21T16:06:37.400Z,99827.13
2022-09-21T16:09:54.051Z,99828.64
2022-09-21T16:12:59.540Z,99830.80
2022-09-21T16:16:20.272Z,99835.98
2022-09-21T16:19:25.525Z,99838.30
2022-09-21T16:22:34.468Z,99836.11
2022-09-21T16:25:44.389Z,99839.74
2022-09-21T16:28:54.736Z,99845.55
2022-09-21T16:32:01.591Z,99843.79
2022-09-21T16:35:08.102Z,99847.39
2022-09-21T16:38:18.552Z,99848.19
2022-09-21T16:41:24.681Z,99849.80
2022-09-21T16:44:39.743Z,99853.23
2022-09-21T16:47:46.590Z,99852.62
2022-09-21T16:50:53.313Z,99851.90
2022-09-21T16:53:58.912Z,99859.44
2022-09-21T16:57:04.824Z,99854.20
2022-09-21T17:00:10.649Z,99853.39
2022-09-21T17:03:18.005Z,99852.88
2022-09-21T17:06:32.479Z,99855.75
2022-09-21T17:09:44.612Z,99855.13
2022-09-21T17:12:51.364Z,99852.20
2022-09-21T17:16:00.938Z,99855.59
2022-09-21T17:19:07.101Z,99853.45
2022-09-21T17:22:14.241Z,99862.88
2022-09-21T17:25:20.661Z,99859.70
2022-09-21T17:28:32.704Z,99861.81
2022-09-21T17:31:38.381Z,99863.93
2022-09-21T17:34:44.910Z,99867.97
2022-09-21T17:37:51.159Z,99864.89
2022-09-21T17:40:57.052Z,99869.95
2022-09-21T17:44:30.403Z,99876.11
2022-09-21T17:47:41.914Z,99878.24
2022-09-21T17:50:47.765Z,99880.55
2022-09-21T17:53:53.606Z,99884.55
2022-09-21T17:57:12.307Z,99887.63
2022-09-21T18:00:26.615Z,99885.28
2022-09-21T18:03:42.691Z,99884.31
2022-09-21T18:06:42.437Z,99885.82
2022-09-21T18:09:51.204Z,99893.82
2022-09-21T18:13:13.804Z,99897.32
2022-09-21T18:16:34.080Z,99894.44
2022-09-21T18:20:02.074Z,99898.44
2022-09-21T18:23:28.274Z,99894.40
2022-09-21T18:26:33.913Z,99897.45
2022-09-21T18:29:46.882Z,99894.58
2022-09-21T18:33:18.080Z,99896.03
2022-09-21T18:36:34.957Z,99894.13
2022-09-21T18:40:04.162Z,99894.97
2022-09-21T18:43:20.668Z,99894.95
2022-09-21T18:46:38.125Z,99896.70
2022-09-21T18:50:13.889Z,99901.02
2022-09-21T18:53:30.177Z,99892.28
2022-09-21T18:56:50.175Z,99896.83
2022-09-21T18:59:55.462Z,99900.63
2022-09-21T19:03:18.071Z,99897.61
2022-09-21T19:06:31.991Z,99900.56
2022-09-21T19:10:13.791Z,99895.81
2022-09-21T19:13:59.914Z,99888.64
2022-09-21T19:17:11.421Z,99888.66
2022-09-21T19:20:47.503Z,99897.38
2022-09-21T19:24:21.020Z,99905.93
2022-09-21T19:27:34.926Z,99896.96
2022-09-21T19:30:39.567Z,99898.92
2022-09-21T19:33:51.420Z,99893.83
2022-09-21T19:36:55.781Z,99894.95
2022-09-21T19:40:03.035Z,99893.34
2022-09-21T19:43:37.234Z,99895.52
2022-09-21T19:47:03.103Z,99891.23
2022-09-21T19:50:09.192Z,99896.23
2022-09-21T19:53:31.982Z,99898.79
2022-09-21T19:56:55.389Z,99896.47
2022-09-21T19:59:58.962Z,99892.07
2022-09-21T20:03:28.069Z,99891.98
2022-09-21T20:06:46.018Z,99892.30
2022-09-21T20:09:56.347Z,99884.88
2022-09-21T20:13:13.840Z,99889.44
2022-09-21T20:16:38.297Z,99878.73
2022-09-21T20:20:02.919Z,99875.45
2022-09-21T20:23:08.730Z,99874.42
2022-09-21T20:26:21.478Z,99876.53
2022-09-21T20:29:28.775Z,99876.91
2022-09-21T20:32:35.388Z,99876.70
2022-09-21T20:35:43.719Z,99875.22
2022-09-21T20:38:49.173Z,99879.40
2022-09-21T20:41:56.359Z,99886.45
2022-09-21T20:45:01.246Z,99887.88
2022-09-21T20:48:09.984Z,99890.03
2022-09-21T20:51:16.859Z,99894.92
2022-09-21T20:54:23.715Z,99893.87
2022-09-21T20:57:29.466Z,99896.94
2022-09-21T21:00:35.134Z,99891.32
2022-09-21T21:03:41.128Z,99886.05
2022-09-21T21:06:47.952Z,99884.46
2022-09-21T21:09:54.859Z,99885.20
2022-09-21T21:13:00.493Z,99885.65
2022-09-21T21:16:12.502Z,99889.13
2022-09-21T21:19:19.507Z,99888.16
2022-09-21T21:22:26.739Z,99878.69
2022-09-21T21:25:32.691Z,99876.00
2022-09-21T21:28:38.222Z,99878.37
2022-09-21T21:31:43.370Z,99880.64
2022-09-21T21:34:48.156Z,99881.52
2022-09-21T21:37:53.639Z,99880.88
2022-09-21T21:40:59.878Z,99880.25
2022-09-21T21:44:06.660Z,99881.50
2022-09-21T21:47:21.246Z,99882.98
2022-09-21T21:50:06.584Z,99890.56
2022-09-21T21:53:12.908Z,99882.67
2022-09-21T21:56:29.711Z,99889.20
2022-09-21T21:59:28.060Z,99891.00
2022-09-21T22:02:21.721Z,99893.31
2022-09-21T22:05:26.994Z,99896.00
2022-09-21T22:08:35.332Z,99903.73
2022-09-21T22:11:42.814Z,99898.21
2022-09-21T22:14:48.666Z,99897.05
2022-09-21T22:17:55.069Z,99897.74
2022-09-21T22:21:00.443Z,99901.64
2022-09-21T22:24:15.017Z,99901.89
2022-09-21T22:27:20.081Z,99907.42
2022-09-21T22:30:26.840Z,99905.14
2022-09-21T22:33:33.249Z,99897.31
2022-09-21T22:36:43.496Z,99887.61
2022-09-21T22:39:50.057Z,99894.09
2022-09-21T22:42:49.080Z,99892.38
2022-09-21T22:45:35.774Z,99885.66
2022-09-21T22:48:27.613Z,99883.95
2022-09-21T22:51:35.825Z,99884.61
2022-09-21T22:54:35.014Z,99880.30
2022-09-21T22:57:21.813Z,99891.30
2022-09-21T23:00:16.354Z,99880.16
2022-09-21T23:03:09.989Z,99875.16
2022-09-21T23:06:14.601Z,99872.78
2022-09-21T23:09:23.910Z,99872.36
2022-09-21T23:12:28.873Z,99871.87
2022-09-21T23:15:33.888Z,99864.50
2022-09-21T23:18:40.000Z,99862.20
2022-09-21T23:21:45.760Z,99864.52
2022-09-21T23:24:51.317Z,99860.27
2022-09-21T23:27:57.532Z,99856.19
2022-09-21T23:31:03.011Z,99853.17
2022-09-21T23:34:10.207Z,99858.17
2022-09-21T23:37:15.588Z,99864.33
2022-09-21T23:40:21.149Z,99856.20
2022-09-21T23:43:27.095Z,99849.84
2022-09-21T23:46:37.900Z,99850.78
2022-09-21T23:49:43.609Z,99842.73
2022-09-21T23:52:48.880Z,99841.44
2022-09-21T23:55:53.834Z,99837.49
2022-09-21T23:58:59.315Z,99846.05
